Flight Track Log - Related Links

Times and Time Zones

All times are in EDT time to prevent confusion due to time zone crossing. See the DLH510 flight status page for this flight to view local times or setup timezone preferences in your user account.

Time Position Orientation Groundspeed Altitude Reporting Facility
EDT Latitude Longitude Course Direction KTS MPH feet Rate Location/Type
Wed 04:18:27 PM 49.9510 8.5300 180° South 203 234 2,000  Level FlightAware ADS-B
Wed 04:18:57 PM 49.9200 8.5310 179° South 233 268 2,500 1,067 Climbing FlightAware ADS-B
Wed 04:19:12 PM 49.9020 8.5320 178° South 244 281 2,800 1,457 Climbing FlightAware ADS-B
Wed 04:20:07 PM 49.8340 8.5380 177° South 288 331 4,200 1,725 Climbing FlightAware ADS-B
Wed 04:20:32 PM 49.8000 8.5400 178° South 292 336 5,100 2,486 Climbing FlightAware ADS-B
Wed 04:21:17 PM 49.7380 8.5440 178° South 304 350 7,100 2,640 Climbing FlightAware ADS-B
Wed 04:21:47 PM 49.6920 8.5470 178° South 319 367 8,400 2,486 Climbing FlightAware ADS-B
Wed 04:22:27 PM 49.6330 8.5520 177° South 319 367 10,000 2,143 Climbing FlightAware ADS-B
Wed 04:22:57 PM 49.5890 8.5570 176° South 337 388 10,900 1,341 Climbing FlightAware ADS-B
Wed 04:23:52 PM 49.4980 8.5660 176° South 383 441 11,900 1,200 Climbing FlightAware ADS-B
Wed 04:24:32 PM 49.4160 8.5730 177° South 419 482 12,800 1,694 Climbing FlightAware ADS-B
Wed 04:25:17 PM 49.3320 8.5800 177° South 436 502 14,300 2,118 Climbing FlightAware ADS-B
Wed 04:25:57 PM 49.2440 8.5850 178° South 437 503 15,800 2,057 Climbing FlightAware ADS-B
Wed 04:26:27 PM 49.1840 8.5890 178° South 453 521 16,700 1,835 Climbing FlightAware ADS-B
Wed 04:27:22 PM 49.0680 8.5510 192° South 463 533 18,400 1,800 Climbing FlightAware ADS-B
Wed 04:27:57 PM 49.0050 8.5160 200° South 462 532 19,400 1,800 Climbing FlightAware ADS-B
Wed 04:28:42 PM 48.9070 8.4620 200° South 476 548 20,800 1,733 Climbing FlightAware ADS-B
Wed 04:29:27 PM 48.8160 8.4130 200° South 475 547 22,000 1,694 Climbing FlightAware ADS-B
Wed 04:30:07 PM 48.7260 8.3650 199° South 479 551 23,200 1,650 Climbing FlightAware ADS-B
Wed 04:30:47 PM 48.6400 8.3190 199° South 493 567 24,200 1,277 Climbing FlightAware ADS-B
Wed 04:32:42 PM 48.3940 8.1900 199° South 498 573 26,500 548 Climbing FlightAware ADS-B
Wed 04:35:00 PM 48.1964 7.8315 230° Southwest  Level Estimated
Wed 04:36:00 PM 48.1101 7.6765 230° Southwest  Level Estimated
Wed 04:37:00 PM 48.0236 7.5220 230° Southwest  Level Estimated
Wed 04:38:00 PM 47.9370 7.3680 230° Southwest  Level Estimated
Wed 04:39:00 PM 47.8501 7.2145 230° Southwest  Level Estimated
Wed 04:40:00 PM 47.7630 7.0616 230° Southwest  Level Estimated
Wed 04:41:00 PM 47.6757 6.9091 230° Southwest  Level Estimated
Wed 04:42:00 PM 47.5882 6.7572 230° Southwest  Level Estimated
Wed 04:43:00 PM 47.5005 6.6058 229° Southwest  Level Estimated
Wed 04:43:12 PM 47.1520 7.0920 229° Southwest 512 589 31,000  Level FlightAware ADS-B
Wed 04:43:52 PM 47.1000 6.9960 232° Southwest 512 589 31,000  Level FlightAware ADS-B
Wed 04:44:27 PM 47.0420 6.8950 230° Southwest 512 589 31,000  Level FlightAware ADS-B
Wed 04:45:17 PM 46.9660 6.7620 230° Southwest 513 590 31,000  Level FlightAware ADS-B
Wed 04:45:57 PM 46.9110 6.6660 230° Southwest 513 590 31,000  Level FlightAware ADS-B
Wed 04:46:57 PM 46.8180 6.5040 230° Southwest 513 590 31,000  Level FlightAware ADS-B
Wed 04:47:37 PM 46.7550 6.3970 229° Southwest 514 592 31,000  Level FlightAware ADS-B
Wed 04:48:12 PM 46.6920 6.2880 230° Southwest 514 592 31,000  Level FlightAware ADS-B
Wed 04:49:02 PM 46.6150 6.1550 230° Southwest 510 587 31,000  Level FlightAware ADS-B
Wed 04:49:57 PM 46.5370 6.0230 229° Southwest 515 593 31,000  Level FlightAware ADS-B
Wed 04:50:37 PM 46.4660 5.9030 229° Southwest 515 593 31,000  Level FlightAware ADS-B
Wed 04:51:22 PM 46.3960 5.7830 230° Southwest 516 594 31,000  Level FlightAware ADS-B
Wed 04:52:02 PM 46.3370 5.6740 232° Southwest 517 595 31,000  Level FlightAware ADS-B
Wed 04:52:42 PM 46.2800 5.5660 233° Southwest 518 596 31,000  Level FlightAware ADS-B
Wed 04:53:27 PM 46.2120 5.4400 232° Southwest 519 597 31,000  Level FlightAware ADS-B
Wed 04:54:07 PM 46.1510 5.3300 231° Southwest 520 598 31,000  Level FlightAware ADS-B
Wed 04:54:47 PM 46.0920 5.2220 232° Southwest 520 598 31,000  Level FlightAware ADS-B
Wed 04:55:32 PM 46.0260 5.1040 231° Southwest 522 601 31,000  Level FlightAware ADS-B
Wed 04:56:12 PM 45.9660 4.9960 231° Southwest 522 601 31,000  Level FlightAware ADS-B
Wed 04:56:57 PM 45.8960 4.8700 231° Southwest 522 601 31,000  Level FlightAware ADS-B
Wed 04:57:42 PM 45.8300 4.7530 231° Southwest 522 601 31,000  Level FlightAware ADS-B
Wed 04:58:22 PM 45.7690 4.6440 231° Southwest 524 603 31,000  Level FlightAware ADS-B
Wed 04:59:07 PM 45.7050 4.5160 234° Southwest 523 602 31,000  Level FlightAware ADS-B
Wed 04:59:47 PM 45.6490 4.4030 235° Southwest 525 604 31,000  Level FlightAware ADS-B
Wed 05:00:27 PM 45.5920 4.2900 234° Southwest 524 603 31,000  Level FlightAware ADS-B
Wed 05:01:12 PM 45.5290 4.1660 234° Southwest 525 604 31,000  Level FlightAware ADS-B
Wed 05:01:52 PM 45.4720 4.0570 233° Southwest 525 604 31,000  Level FlightAware ADS-B
Wed 05:02:32 PM 45.4150 3.9460 234° Southwest 525 604 31,000  Level FlightAware ADS-B
Wed 05:03:17 PM 45.3480 3.8180 233° Southwest 525 604 31,000  Level FlightAware ADS-B
Wed 05:03:57 PM 45.2890 3.7050 233° Southwest 527 606 31,000  Level FlightAware ADS-B
Wed 05:04:42 PM 45.2260 3.5830 234° Southwest 528 608 31,000  Level FlightAware ADS-B
Wed 05:05:22 PM 45.1690 3.4720 234° Southwest 530 610 31,000  Level FlightAware ADS-B
Wed 05:06:02 PM 45.1090 3.3590 233° Southwest 530 610 31,000  Level FlightAware ADS-B
Wed 05:06:47 PM 45.0450 3.2350 234° Southwest 531 611 31,000  Level FlightAware ADS-B
Wed 05:07:27 PM 44.9890 3.1290 233° Southwest 531 611 31,000  Level FlightAware ADS-B
Wed 05:08:02 PM 44.9410 3.0380 233° Southwest 532 612 31,000  Level FlightAware ADS-B
Wed 05:08:52 PM 44.8560 2.8950 230° Southwest 532 612 31,000  Level FlightAware ADS-B
Wed 05:09:32 PM 44.7920 2.7880 230° Southwest 533 613 31,000  Level FlightAware ADS-B
Wed 05:10:17 PM 44.7180 2.6710 228° Southwest 533 613 31,000  Level FlightAware ADS-B
Wed 05:10:57 PM 44.6520 2.5670 228° Southwest 533 613 31,000  Level FlightAware ADS-B
Wed 05:11:42 PM 44.5770 2.4500 228° Southwest 534 615 31,000  Level FlightAware ADS-B
Wed 05:12:22 PM 44.5150 2.3510 229° Southwest 535 616 31,000  Level FlightAware ADS-B
Wed 05:13:07 PM 44.4400 2.2320 229° Southwest 536 617 31,000  Level FlightAware ADS-B
Wed 05:13:47 PM 44.3730 2.1280 228° Southwest 536 617 31,000  Level FlightAware ADS-B
Wed 05:14:27 PM 44.3070 2.0240 228° Southwest 537 618 31,000  Level FlightAware ADS-B
Wed 05:15:12 PM 44.2310 1.9070 228° Southwest 537 618 31,000  Level FlightAware ADS-B
Wed 05:15:52 PM 44.1640 1.8030 228° Southwest 536 617 31,000  Level FlightAware ADS-B
Wed 05:16:32 PM 44.1010 1.7060 228° Southwest 533 613 31,000  Level FlightAware ADS-B
Wed 05:17:17 PM 44.0250 1.5890 228° Southwest 532 612 31,000  Level FlightAware ADS-B
Wed 05:17:57 PM 43.9600 1.4890 228° Southwest 530 610 31,000  Level FlightAware ADS-B
Wed 05:18:42 PM 43.8840 1.3740 228° Southwest 530 610 31,000  Level FlightAware ADS-B
Wed 05:19:22 PM 43.8200 1.2770 228° Southwest 532 612 31,000  Level FlightAware ADS-B
Wed 05:20:07 PM 43.7440 1.1620 228° Southwest 532 612 31,000  Level FlightAware ADS-B
Wed 05:20:47 PM 43.6780 1.0630 227° Southwest 532 612 31,000  Level FlightAware ADS-B
Wed 05:21:27 PM 43.6110 0.9620 228° Southwest 534 615 31,000  Level FlightAware ADS-B
Wed 05:22:12 PM 43.5380 0.8540 227° Southwest 536 617 31,000  Level FlightAware ADS-B
Wed 05:22:52 PM 43.4700 0.7510 228° Southwest 537 618 31,000  Level FlightAware ADS-B
Wed 05:23:37 PM 43.3920 0.6360 227° Southwest 537 618 31,000  Level FlightAware ADS-B
Wed 05:24:17 PM 43.3250 0.5370 227° Southwest 537 618 31,000  Level FlightAware ADS-B
Wed 05:24:57 PM 43.2570 0.4370 227° Southwest 539 620 31,000  Level FlightAware ADS-B
Wed 05:25:42 PM 43.1830 0.3280 227° Southwest 539 620 31,000  Level FlightAware ADS-B
Wed 05:26:22 PM 43.1110 0.2240 227° Southwest 540 621 31,000  Level FlightAware ADS-B
Wed 05:27:02 PM 43.0460 0.1280 227° Southwest 541 623 31,000  Level FlightAware ADS-B
Wed 05:27:47 PM 42.9670 0.0140 227° Southwest 541 623 31,000  Level FlightAware ADS-B
Wed 05:28:27 PM 42.9010 -0.0820 227° Southwest 541 623 31,000 494 Level FlightAware ADS-B
Wed 05:29:12 PM 42.8190 -0.1980 226° Southwest 543 625 31,700 847 Climbing FlightAware ADS-B
Wed 05:29:52 PM 42.7390 -0.2790 217° Southwest 536 617 32,200 825 Climbing FlightAware ADS-B
Wed 05:30:32 PM 42.6550 -0.3390 208° Southwest 534 615 32,800 565 Climbing FlightAware ADS-B
Wed 05:31:17 PM 42.5550 -0.4090 207° Southwest 534 615 33,000 141 Climbing FlightAware ADS-B
Wed 05:31:57 PM 42.4680 -0.4700 207° Southwest 534 615 33,000  Level FlightAware ADS-B
Wed 05:32:42 PM 42.3700 -0.5390 207° Southwest 535 616 33,000  Level FlightAware ADS-B
Wed 05:33:22 PM 42.2780 -0.6030 207° Southwest 537 618 33,000  Level FlightAware ADS-B
Wed 05:34:02 PM 42.1900 -0.6650 208° Southwest 539 620 33,000  Level FlightAware ADS-B
Wed 05:34:47 PM 42.0910 -0.7330 207° Southwest 539 620 33,000  Level FlightAware ADS-B
Wed 05:35:27 PM 42.0030 -0.7940 207° Southwest 539 620 33,000  Level FlightAware ADS-B
Wed 05:36:12 PM 41.9040 -0.8620 207° Southwest 539 620 33,000  Level FlightAware ADS-B
Wed 05:36:52 PM 41.8130 -0.9250 207° Southwest 539 620 33,000  Level FlightAware ADS-B
Wed 05:37:32 PM 41.7260 -0.9840 207° Southwest 538 619 33,000  Level FlightAware ADS-B
Wed 05:38:17 PM 41.6280 -1.0600 210° Southwest 541 623 33,000  Level FlightAware ADS-B
Wed 05:38:57 PM 41.5480 -1.1340 215° Southwest 541 623 33,000  Level FlightAware ADS-B
Wed 05:39:37 PM 41.4630 -1.2100 214° Southwest 541 623 33,000  Level FlightAware ADS-B
Wed 05:40:22 PM 41.3720 -1.2930 214° Southwest 538 619 33,000  Level FlightAware ADS-B
Wed 05:41:02 PM 41.2900 -1.3670 214° Southwest 539 620 33,000  Level FlightAware ADS-B
Wed 05:41:47 PM 41.1980 -1.4510 214° Southwest 538 619 33,000  Level FlightAware ADS-B
Wed 05:42:27 PM 41.1140 -1.5270 214° Southwest 536 617 33,000  Level FlightAware ADS-B
Wed 05:43:07 PM 41.0320 -1.6010 214° Southwest 536 617 33,000  Level FlightAware ADS-B
Wed 05:43:47 PM 40.9490 -1.6750 214° Southwest 536 617 33,000  Level FlightAware ADS-B
Wed 05:44:32 PM 40.8580 -1.7570 214° Southwest 535 616 33,000  Level FlightAware ADS-B
Wed 05:45:12 PM 40.7760 -1.8310 214° Southwest 535 616 33,000  Level FlightAware ADS-B
Wed 05:45:57 PM 40.6860 -1.9100 214° Southwest 535 616 33,000  Level FlightAware ADS-B
Wed 05:46:37 PM 40.6000 -1.9870 214° Southwest 535 616 33,000  Level FlightAware ADS-B
Wed 05:47:17 PM 40.5200 -2.0570 214° Southwest 535 616 33,000  Level FlightAware ADS-B
Wed 05:48:02 PM 40.4260 -2.1400 214° Southwest 536 617 33,000  Level FlightAware ADS-B
Wed 05:48:42 PM 40.3450 -2.2110 214° Southwest 536 617 33,000  Level FlightAware ADS-B
Wed 05:49:27 PM 40.2490 -2.2960 214° Southwest 536 617 33,000  Level FlightAware ADS-B
Wed 05:50:07 PM 40.1670 -2.3680 214° Southwest 536 617 33,000  Level FlightAware ADS-B
Wed 05:50:47 PM 40.0850 -2.4390 214° Southwest 536 617 33,000  Level FlightAware ADS-B
Wed 05:51:32 PM 39.9930 -2.5180 213° Southwest 537 618 33,000  Level FlightAware ADS-B
Wed 05:52:12 PM 39.9120 -2.5890 214° Southwest 536 617 33,000  Level FlightAware ADS-B
Wed 05:52:57 PM 39.8180 -2.6700 214° Southwest 536 617 33,000  Level FlightAware ADS-B
Wed 05:53:42 PM 39.7240 -2.7510 214° Southwest 537 618 33,000  Level FlightAware ADS-B
Wed 05:54:22 PM 39.6420 -2.8210 213° Southwest 538 619 33,000  Level FlightAware ADS-B
Wed 05:55:02 PM 39.5600 -2.8910 213° Southwest 537 618 33,000  Level FlightAware ADS-B
Wed 05:55:47 PM 39.4640 -2.9730 213° Southwest 535 616 33,000  Level FlightAware ADS-B
Wed 05:56:27 PM 39.3770 -3.0360 209° Southwest 531 611 33,000  Level FlightAware ADS-B
Wed 05:57:12 PM 39.2790 -3.0870 202° Southwest 527 606 33,000  Level FlightAware ADS-B
Wed 05:57:52 PM 39.1890 -3.1310 201° Southwest 525 604 33,000  Level FlightAware ADS-B
Wed 05:58:32 PM 39.0960 -3.1750 200° South 523 602 33,000  Level FlightAware ADS-B
Wed 05:59:07 PM 39.0180 -3.2140 201° Southwest 522 601 33,000  Level FlightAware ADS-B
Wed 05:59:57 PM 38.9050 -3.2830 205° Southwest 520 598 33,000  Level FlightAware ADS-B
Wed 06:00:32 PM 38.8430 -3.3220 206° Southwest 522 601 33,000  Level FlightAware ADS-B
Wed 06:01:22 PM 38.7320 -3.3930 207° Southwest 521 600 33,000  Level FlightAware ADS-B
Wed 06:02:02 PM 38.6370 -3.4530 206° Southwest 521 600 33,000  Level FlightAware ADS-B
Wed 06:02:47 PM 38.5390 -3.5140 206° Southwest 523 602 33,000  Level FlightAware ADS-B
Wed 06:03:27 PM 38.4530 -3.5680 206° Southwest 522 601 33,000  Level FlightAware ADS-B
Wed 06:04:07 PM 38.3640 -3.6240 206° Southwest 522 601 33,000  Level FlightAware ADS-B
Wed 06:04:52 PM 38.2700 -3.6830 206° Southwest 519 597 33,000  Level FlightAware ADS-B
Wed 06:05:37 PM 38.1730 -3.7420 206° Southwest 512 589 33,000  Level FlightAware ADS-B
Wed 06:06:17 PM 38.0890 -3.7940 206° Southwest 508 585 33,000  Level FlightAware ADS-B
Wed 06:06:57 PM 38.0050 -3.8470 206° Southwest 510 587 33,000  Level FlightAware ADS-B
Wed 06:07:42 PM 37.9050 -3.9080 206° Southwest 510 587 33,000  Level FlightAware ADS-B
Wed 06:08:22 PM 37.8200 -3.9610 206° Southwest 511 588 33,000  Level FlightAware ADS-B
Wed 06:09:07 PM 37.7280 -4.0170 206° Southwest 511 588 33,000  Level FlightAware ADS-B
Wed 06:09:47 PM 37.6420 -4.0690 206° Southwest 512 589 33,000  Level FlightAware ADS-B
Wed 06:10:27 PM 37.5560 -4.1210 206° Southwest 514 592 33,000  Level FlightAware ADS-B
Wed 06:11:12 PM 37.4580 -4.1810 206° Southwest 517 595 33,000  Level FlightAware ADS-B
Wed 06:11:52 PM 37.3720 -4.2330 206° Southwest 519 597 33,000  Level FlightAware ADS-B
Wed 06:12:37 PM 37.2770 -4.2910 206° Southwest 522 601 33,000  Level FlightAware ADS-B
Wed 06:13:17 PM 37.1890 -4.3430 205° Southwest 525 604 33,000  Level FlightAware ADS-B
Wed 06:13:57 PM 37.1000 -4.3970 206° Southwest 525 604 33,000  Level FlightAware ADS-B
Wed 06:14:42 PM 37.0010 -4.4570 206° Southwest 530 610 33,000  Level FlightAware ADS-B
Wed 06:15:22 PM 36.9120 -4.5100 205° Southwest 531 611 33,000  Level FlightAware ADS-B
Wed 06:16:07 PM 36.8130 -4.5690 206° Southwest 533 613 33,000  Level FlightAware ADS-B
Wed 06:16:47 PM 36.7230 -4.6220 205° Southwest 534 615 33,000  Level FlightAware ADS-B
Wed 06:17:27 PM 36.6330 -4.6750 205° Southwest 534 615 33,000  Level FlightAware ADS-B
Wed 06:18:12 PM 36.5320 -4.7350 206° Southwest 534 615 33,000  Level FlightAware ADS-B
Wed 06:18:52 PM 36.4430 -4.7880 206° Southwest 534 615 33,000  Level FlightAware ADS-B
Wed 06:19:37 PM 36.3440 -4.8460 205° Southwest 534 615 33,000  Level FlightAware ADS-B
Wed 06:20:17 PM 36.2560 -4.8980 205° Southwest 534 615 33,000  Level FlightAware ADS-B
Wed 06:21:02 PM 36.1550 -4.9570 205° Southwest 534 615 33,000  Level FlightAware ADS-B
Wed 06:21:42 PM 36.0650 -5.0090 205° Southwest 534 615 33,000  Level FlightAware ADS-B
Wed 06:22:27 PM 35.9640 -5.0680 205° Southwest 535 616 33,000  Level FlightAware ADS-B
Wed 06:22:57 PM 35.8990 -5.1060 205° Southwest 536 617 33,000  Level FlightAware ADS-B
Wed 06:23:47 PM 35.7900 -5.1840 210° Southwest 532 612 33,000  Level FlightAware ADS-B
Wed 06:24:32 PM 35.7000 -5.2660 217° Southwest 530 610 33,000  Level FlightAware ADS-B
Wed 06:25:12 PM 35.6200 -5.3370 216° Southwest 537 618 33,000  Level FlightAware ADS-B
Wed 06:25:52 PM 35.5390 -5.4080 216° Southwest 536 617 33,000  Level FlightAware ADS-B
Wed 06:26:37 PM 35.4490 -5.4870 216° Southwest 534 615 33,000  Level FlightAware ADS-B
Wed 06:27:12 PM 35.3790 -5.5490 216° Southwest 533 613 33,000  Level FlightAware ADS-B
Wed 06:28:02 PM 35.2780 -5.6380 216° Southwest 536 617 33,000  Level FlightAware ADS-B
Wed 06:28:42 PM 35.1980 -5.7080 216° Southwest 538 619 33,000  Level FlightAware ADS-B
Wed 06:29:22 PM 35.1160 -5.7800 216° Southwest 533 613 33,000  Level FlightAware ADS-B
Wed 06:30:07 PM 35.0250 -5.8600 216° Southwest 535 616 33,000  Level FlightAware ADS-B
Wed 06:30:47 PM 34.9450 -5.9290 215° Southwest 538 619 33,000  Level FlightAware ADS-B
Wed 06:31:32 PM 34.8520 -6.0100 216° Southwest 539 620 33,000  Level FlightAware ADS-B
Wed 06:32:27 PM 34.7390 -6.1070 215° Southwest 541 623 33,000  Level FlightAware ADS-B
Wed 06:33:07 PM 34.6550 -6.1800 216° Southwest 548 631 33,000  Level FlightAware ADS-B
Wed 06:33:42 PM 34.5890 -6.2360 215° Southwest 548 631 33,000  Level FlightAware ADS-B
Wed 06:34:32 PM 34.4790 -6.3310 215° Southwest 548 631 33,000  Level FlightAware ADS-B
Wed 06:35:22 PM 34.3860 -6.4100 215° Southwest 549 632 33,000  Level FlightAware ADS-B
Wed 06:36:22 PM 34.2630 -6.5150 215° Southwest 549 632 33,000  Level FlightAware ADS-B
Wed 06:37:02 PM 34.1920 -6.5750 215° Southwest 549 632 33,000  Level FlightAware ADS-B
Wed 06:37:42 PM 34.1220 -6.6340 215° Southwest 549 632 33,000  Level FlightAware ADS-B
Wed 06:38:22 PM 34.0510 -6.6940 215° Southwest 549 632 33,000  Level FlightAware ADS-B
Wed 06:39:12 PM 33.9630 -6.7690 215° Southwest 549 632 33,000  Level FlightAware ADS-B
Wed 06:39:52 PM 33.8920 -6.8290 215° Southwest 549 632 33,000  Level FlightAware ADS-B
Wed 06:40:32 PM 33.8210 -6.8880 215° Southwest 549 632 33,000  Level FlightAware ADS-B
Wed 06:41:12 PM 33.7500 -6.9480 215° Southwest 549 632 33,000  Level FlightAware ADS-B
Wed 06:41:52 PM 33.6800 -7.0070 215° Southwest 549 632 33,000  Level FlightAware ADS-B
Wed 06:42:32 PM 33.6090 -7.0670 215° Southwest 549 632 33,000  Level FlightAware ADS-B
Wed 06:43:22 PM 33.5200 -7.1410 215° Southwest 549 632 33,000  Level FlightAware ADS-B
Wed 06:44:02 PM 33.4500 -7.2010 216° Southwest 549 632 33,000  Level FlightAware ADS-B
Wed 06:44:42 PM 33.3790 -7.2600 215° Southwest 549 632 33,000  Level FlightAware ADS-B
Wed 06:45:22 PM 33.3080 -7.3190 215° Southwest 549 632 33,000 14 Level FlightAware ADS-B
Wed 06:48:00 PM 33.0365 -7.5915 220° Southwest  Level Estimated
Wed 06:49:00 PM 32.9332 -7.6946 220° Southwest  Level Estimated
Wed 06:50:00 PM 32.8298 -7.7974 220° Southwest  Level Estimated
Wed 06:51:00 PM 32.7264 -7.9000 220° Southwest  Level Estimated
Wed 06:52:00 PM 32.6229 -8.0023 220° Southwest  Level Estimated
Wed 06:53:00 PM 32.5193 -8.1044 220° Southwest  Level Estimated
Wed 06:54:00 PM 32.4156 -8.2063 220° Southwest  Level Estimated
Wed 06:55:00 PM 32.3118 -8.3079 220° Southwest  Level Estimated
Wed 06:56:00 PM 32.2080 -8.4093 220° Southwest  Level Estimated
Wed 06:57:00 PM 32.1040 -8.5105 220° Southwest  Level Estimated
Wed 06:58:00 PM 32.0000 -8.6114 219° Southwest  Level Estimated
Wed 06:59:00 PM 31.8959 -8.7121 219° Southwest  Level Estimated
Wed 07:00:00 PM 31.7917 -8.8126 219° Southwest  Level Estimated
Wed 07:01:00 PM 31.6875 -8.9128 219° Southwest  Level Estimated
Wed 07:02:00 PM 31.5832 -9.0128 219° Southwest  Level Estimated
Wed 07:03:00 PM 31.4788 -9.1126 219° Southwest  Level Estimated
Wed 07:04:00 PM 31.3743 -9.2122 219° Southwest  Level Estimated
Wed 07:05:00 PM 31.2697 -9.3116 219° Southwest  Level Estimated
Wed 07:06:00 PM 31.1651 -9.4107 219° Southwest  Level Estimated
Wed 07:07:00 PM 31.0604 -9.5097 219° Southwest  Level Estimated
Wed 07:08:00 PM 30.9556 -9.6083 219° Southwest  Level Estimated
Wed 07:09:00 PM 30.8507 -9.7068 219° Southwest  Level Estimated
Wed 07:10:00 PM 30.7458 -9.8051 219° Southwest  Level Estimated
Wed 07:11:00 PM 30.6408 -9.9032 219° Southwest  Level Estimated
Wed 07:12:00 PM 30.5357 -10.0010 219° Southwest  Level Estimated
Wed 07:13:00 PM 30.4305 -10.0986 219° Southwest  Level Estimated
Wed 07:14:00 PM 30.3253 -10.1961 219° Southwest  Level Estimated
Wed 07:15:00 PM 30.2200 -10.2933 219° Southwest  Level Estimated
Wed 07:16:00 PM 30.1146 -10.3903 219° Southwest  Level Estimated
Wed 07:17:00 PM 30.0092 -10.4871 218° Southwest  Level Estimated
Wed 07:18:00 PM 29.9037 -10.5837 218° Southwest  Level Estimated
Wed 07:19:00 PM 29.7981 -10.6801 218° Southwest  Level Estimated
Wed 07:20:00 PM 29.6924 -10.7762 218° Southwest  Level Estimated
Wed 07:21:00 PM 29.5867 -10.8722 218° Southwest  Level Estimated
Wed 07:22:00 PM 29.4809 -10.9680 218° Southwest  Level Estimated
Wed 07:23:00 PM 29.3750 -11.0636 218° Southwest  Level Estimated
Wed 07:24:00 PM 29.2691 -11.1590 218° Southwest  Level Estimated
Wed 07:25:00 PM 29.1631 -11.2542 218° Southwest  Level Estimated
Wed 07:26:00 PM 29.0571 -11.3491 218° Southwest  Level Estimated
Wed 07:27:00 PM 28.9509 -11.4439 218° Southwest  Level Estimated
Wed 07:28:00 PM 28.8447 -11.5385 218° Southwest  Level Estimated
Wed 07:29:00 PM 28.7385 -11.6329 218° Southwest  Level Estimated
Wed 07:30:00 PM 28.6321 -11.7272 218° Southwest  Level Estimated
Wed 07:31:00 PM 28.5257 -11.8212 218° Southwest  Level Estimated
Wed 07:32:00 PM 28.4193 -11.9150 218° Southwest  Level Estimated
Wed 07:33:00 PM 28.3128 -12.0087 218° Southwest  Level Estimated
Wed 07:34:00 PM 28.2062 -12.1021 218° Southwest  Level Estimated
Wed 07:35:00 PM 28.0995 -12.1954 218° Southwest  Level Estimated
Wed 07:36:00 PM 27.9928 -12.2885 218° Southwest  Level Estimated
Wed 07:37:00 PM 27.8860 -12.3814 218° Southwest  Level Estimated
Wed 07:38:00 PM 27.7792 -12.4741 218° Southwest  Level Estimated
Wed 07:39:00 PM 27.6723 -12.5667 217° Southwest  Level Estimated
Wed 07:40:00 PM 27.5653 -12.6590 217° Southwest  Level Estimated
Wed 07:41:00 PM 27.4583 -12.7512 217° Southwest  Level Estimated
Wed 07:42:00 PM 27.3512 -12.8432 217° Southwest  Level Estimated
Wed 07:43:00 PM 27.2441 -12.9350 217° Southwest  Level Estimated
Wed 07:44:00 PM 27.1369 -13.0267 217° Southwest  Level Estimated
Wed 07:45:00 PM 27.0296 -13.1181 217° Southwest  Level Estimated
Wed 07:46:00 PM 26.9223 -13.2094 217° Southwest  Level Estimated
Wed 07:47:00 PM 26.8149 -13.3006 217° Southwest  Level Estimated
Wed 07:48:00 PM 26.7075 -13.3915 217° Southwest  Level Estimated
Wed 07:49:00 PM 26.6000 -13.4823 217° Southwest  Level Estimated
Wed 07:50:00 PM 26.4925 -13.5729 217° Southwest  Level Estimated
Wed 07:51:00 PM 26.3848 -13.6633 217° Southwest  Level Estimated
Wed 07:52:00 PM 26.2772 -13.7536 217° Southwest  Level Estimated
Wed 07:53:00 PM 26.1695 -13.8437 217° Southwest  Level Estimated
Wed 07:54:00 PM 26.0617 -13.9336 217° Southwest  Level Estimated
Wed 07:55:00 PM 25.9538 -14.0234 217° Southwest  Level Estimated
Wed 07:56:00 PM 25.8459 -14.1130 217° Southwest  Level Estimated
Wed 07:57:00 PM 25.7380 -14.2024 217° Southwest  Level Estimated
Wed 07:58:00 PM 25.6300 -14.2917 217° Southwest  Level Estimated
Wed 07:59:00 PM 25.5220 -14.3808 217° Southwest  Level Estimated
Wed 08:00:00 PM 25.4139 -14.4698 217° Southwest  Level Estimated
Wed 08:01:00 PM 25.3057 -14.5586 217° Southwest  Level Estimated
Wed 08:02:00 PM 25.1975 -14.6472 217° Southwest  Level Estimated
Wed 08:03:00 PM 25.0892 -14.7357 217° Southwest  Level Estimated
Wed 08:04:00 PM 24.9809 -14.8240 216° Southwest  Level Estimated
Wed 08:05:00 PM 24.8725 -14.9122 216° Southwest  Level Estimated
Wed 08:06:00 PM 24.7641 -15.0002 216° Southwest  Level Estimated
Wed 08:07:00 PM 24.6556 -15.0881 216° Southwest  Level Estimated
Wed 08:08:00 PM 24.5471 -15.1758 216° Southwest  Level Estimated
Wed 08:09:00 PM 24.4385 -15.2634 216° Southwest  Level Estimated
Wed 08:10:00 PM 24.3299 -15.3508 216° Southwest  Level Estimated
Wed 08:11:00 PM 24.2212 -15.4380 216° Southwest  Level Estimated
Wed 08:12:00 PM 24.1125 -15.5252 216° Southwest  Level Estimated
Wed 08:13:00 PM 24.0037 -15.6121 216° Southwest  Level Estimated
Wed 08:14:00 PM 23.8949 -15.6989 216° Southwest  Level Estimated
Wed 08:15:00 PM 23.7860 -15.7856 216° Southwest  Level Estimated
Wed 08:16:00 PM 23.6771 -15.8721 216° Southwest  Level Estimated
Wed 08:17:00 PM 23.5681 -15.9585 216° Southwest  Level Estimated
Wed 08:18:00 PM 23.4591 -16.0447 216° Southwest  Level Estimated
Wed 08:19:00 PM 23.3501 -16.1308 216° Southwest  Level Estimated
Wed 08:20:00 PM 23.2409 -16.2168 216° Southwest  Level Estimated
Wed 08:21:00 PM 23.1318 -16.3026 216° Southwest  Level Estimated
Wed 08:22:00 PM 23.0226 -16.3882 216° Southwest  Level Estimated
Wed 08:23:00 PM 22.9133 -16.4738 216° Southwest  Level Estimated
Wed 08:24:00 PM 22.8040 -16.5592 216° Southwest  Level Estimated
Wed 08:25:00 PM 22.6947 -16.6444 216° Southwest  Level Estimated
Wed 08:26:00 PM 22.5853 -16.7295 216° Southwest  Level Estimated
Wed 08:27:00 PM 22.4759 -16.8145 216° Southwest  Level Estimated
Wed 08:28:00 PM 22.3664 -16.8994 216° Southwest  Level Estimated
Wed 08:29:00 PM 22.2569 -16.9841 216° Southwest  Level Estimated
Wed 08:30:00 PM 22.1473 -17.0687 216° Southwest  Level Estimated
Wed 08:31:00 PM 22.0377 -17.1532 216° Southwest  Level Estimated
Wed 08:32:00 PM 21.9281 -17.2375 216° Southwest  Level Estimated
Wed 08:33:00 PM 21.8184 -17.3217 215° Southwest  Level Estimated
Wed 08:34:00 PM 21.7086 -17.4057 215° Southwest  Level Estimated
Wed 08:35:00 PM 21.5989 -17.4897 215° Southwest  Level Estimated
Wed 08:36:00 PM 21.4890 -17.5735 215° Southwest  Level Estimated
Wed 08:37:00 PM 21.3792 -17.6572 215° Southwest  Level Estimated
Wed 08:38:00 PM 21.2693 -17.7407 215° Southwest  Level Estimated
Wed 08:39:00 PM 21.1593 -17.8242 215° Southwest  Level Estimated
Wed 08:40:00 PM 21.0494 -17.9075 215° Southwest  Level Estimated
Wed 08:41:00 PM 20.9393 -17.9907 215° Southwest  Level Estimated
Wed 08:42:00 PM 20.8293 -18.0737 215° Southwest  Level Estimated
Wed 08:43:00 PM 20.7192 -18.1567 215° Southwest  Level Estimated
Wed 08:44:00 PM 20.6090 -18.2395 215° Southwest  Level Estimated
Wed 08:45:00 PM 20.4988 -18.3222 215° Southwest  Level Estimated
Wed 08:46:00 PM 20.3886 -18.4048 215° Southwest  Level Estimated
Wed 08:47:00 PM 20.2783 -18.4872 215° Southwest  Level Estimated
Wed 08:48:00 PM 20.1680 -18.5696 215° Southwest  Level Estimated
Wed 08:49:00 PM 20.0577 -18.6518 215° Southwest  Level Estimated
Wed 08:50:00 PM 19.9473 -18.7339 215° Southwest  Level Estimated
Wed 08:51:00 PM 19.8369 -18.8159 215° Southwest  Level Estimated
Wed 08:52:00 PM 19.7265 -18.8978 215° Southwest  Level Estimated
Wed 08:53:00 PM 19.6160 -18.9796 215° Southwest  Level Estimated
Wed 08:54:00 PM 19.5054 -19.0612 215° Southwest  Level Estimated
Wed 08:55:00 PM 19.3949 -19.1428 215° Southwest  Level Estimated
Wed 08:56:00 PM 19.2843 -19.2242 215° Southwest  Level Estimated
Wed 08:57:00 PM 19.1736 -19.3056 215° Southwest  Level Estimated
Wed 08:58:00 PM 19.0630 -19.3868 215° Southwest  Level Estimated
Wed 08:59:00 PM 18.9523 -19.4679 215° Southwest  Level Estimated
Wed 09:00:00 PM 18.8415 -19.5489 215° Southwest  Level Estimated
Wed 09:01:00 PM 18.7307 -19.6298 215° Southwest  Level Estimated
Wed 09:02:00 PM 18.6199 -19.7106 215° Southwest  Level Estimated
Wed 09:03:00 PM 18.5091 -19.7913 215° Southwest  Level Estimated
Wed 09:04:00 PM 18.3982 -19.8719 215° Southwest  Level Estimated
Wed 09:05:00 PM 18.2873 -19.9523 215° Southwest  Level Estimated
Wed 09:06:00 PM 18.1763 -20.0327 215° Southwest  Level Estimated
Wed 09:07:00 PM 18.0654 -20.1130 215° Southwest  Level Estimated
Wed 09:08:00 PM 17.9543 -20.1932 214° Southwest  Level Estimated
Wed 09:09:00 PM 17.8433 -20.2732 214° Southwest  Level Estimated
Wed 09:10:00 PM 17.7322 -20.3532 214° Southwest  Level Estimated
Wed 09:11:00 PM 17.6211 -20.4331 214° Southwest  Level Estimated
Wed 09:12:00 PM 17.5100 -20.5128 214° Southwest  Level Estimated
Wed 09:13:00 PM 17.3988 -20.5925 214° Southwest  Level Estimated
Wed 09:14:00 PM 17.2876 -20.6721 214° Southwest  Level Estimated
Wed 09:15:00 PM 17.1763 -20.7516 214° Southwest  Level Estimated
Wed 09:16:00 PM 17.0651 -20.8310 214° Southwest  Level Estimated
Wed 09:17:00 PM 16.9538 -20.9103 214° Southwest  Level Estimated
Wed 09:18:00 PM 16.8424 -20.9895 214° Southwest  Level Estimated
Wed 09:19:00 PM 16.7311 -21.0686 214° Southwest  Level Estimated
Wed 09:20:00 PM 16.6197 -21.1476 214° Southwest  Level Estimated
Wed 09:21:00 PM 16.5083 -21.2265 214° Southwest  Level Estimated
Wed 09:22:00 PM 16.3968 -21.3053 214° Southwest  Level Estimated
Wed 09:23:00 PM 16.2853 -21.3841 214° Southwest  Level Estimated
Wed 09:24:00 PM 16.1738 -21.4627 214° Southwest  Level Estimated
Wed 09:25:00 PM 16.0623 -21.5413 214° Southwest  Level Estimated
Wed 09:26:00 PM 15.9507 -21.6198 214° Southwest  Level Estimated
Wed 09:27:00 PM 15.8391 -21.6982 214° Southwest  Level Estimated
Wed 09:28:00 PM 15.7275 -21.7764 214° Southwest  Level Estimated
Wed 09:29:00 PM 15.6159 -21.8547 214° Southwest  Level Estimated
Wed 09:30:00 PM 15.5042 -21.9328 214° Southwest  Level Estimated
Wed 09:31:00 PM 15.3925 -22.0109 214° Southwest  Level Estimated
Wed 09:32:00 PM 15.2807 -22.0888 214° Southwest  Level Estimated
Wed 09:33:00 PM 15.1690 -22.1667 214° Southwest  Level Estimated
Wed 09:34:00 PM 15.0572 -22.2445 214° Southwest  Level Estimated
Wed 09:35:00 PM 14.9454 -22.3222 214° Southwest  Level Estimated
Wed 09:36:00 PM 14.8335 -22.3998 214° Southwest  Level Estimated
Wed 09:37:00 PM 14.7217 -22.4774 214° Southwest  Level Estimated
Wed 09:38:00 PM 14.6098 -22.5549 214° Southwest  Level Estimated
Wed 09:39:00 PM 14.4979 -22.6323 214° Southwest  Level Estimated
Wed 09:40:00 PM 14.3859 -22.7096 214° Southwest  Level Estimated
Wed 09:41:00 PM 14.2739 -22.7868 214° Southwest  Level Estimated
Wed 09:42:00 PM 14.1620 -22.8640 214° Southwest  Level Estimated
Wed 09:43:00 PM 14.0499 -22.9411 214° Southwest  Level Estimated
Wed 09:44:00 PM 13.9379 -23.0181 214° Southwest  Level Estimated
Wed 09:45:00 PM 13.8258 -23.0950 214° Southwest  Level Estimated
Wed 09:46:00 PM 13.7137 -23.1719 214° Southwest  Level Estimated
Wed 09:47:00 PM 13.6016 -23.2487 214° Southwest  Level Estimated
Wed 09:48:00 PM 13.4895 -23.3254 214° Southwest  Level Estimated
Wed 09:49:00 PM 13.3773 -23.4020 214° Southwest  Level Estimated
Wed 09:50:00 PM 13.2651 -23.4786 214° Southwest  Level Estimated
Wed 09:51:00 PM 13.1529 -23.5551 214° Southwest  Level Estimated
Wed 09:52:00 PM 13.0407 -23.6315 214° Southwest  Level Estimated
Wed 09:53:00 PM 12.9284 -23.7079 214° Southwest  Level Estimated
Wed 09:54:00 PM 12.8162 -23.7842 214° Southwest  Level Estimated
Wed 09:55:00 PM 12.7039 -23.8604 214° Southwest  Level Estimated
Wed 09:56:00 PM 12.5916 -23.9366 213° Southwest  Level Estimated
Wed 09:57:00 PM 12.4792 -24.0127 213° Southwest  Level Estimated
Wed 09:58:00 PM 12.3669 -24.0887 213° Southwest  Level Estimated
Wed 09:59:00 PM 12.2545 -24.1647 213° Southwest  Level Estimated
Wed 10:00:00 PM 12.1421 -24.2406 213° Southwest  Level Estimated
Wed 10:01:00 PM 12.0297 -24.3164 213° Southwest  Level Estimated
Wed 10:02:00 PM 11.9172 -24.3922 213° Southwest  Level Estimated
Wed 10:03:00 PM 11.8048 -24.4679 213° Southwest  Level Estimated
Wed 10:04:00 PM 11.6923 -24.5435 213° Southwest  Level Estimated
Wed 10:05:00 PM 11.5798 -24.6191 213° Southwest  Level Estimated
Wed 10:06:00 PM 11.4673 -24.6946 213° Southwest  Level Estimated
Wed 10:07:00 PM 11.3547 -24.7701 213° Southwest  Level Estimated
Wed 10:08:00 PM 11.2422 -24.8455 213° Southwest  Level Estimated
Wed 10:09:00 PM 11.1296 -24.9208 213° Southwest  Level Estimated
Wed 10:10:00 PM 11.0170 -24.9961 213° Southwest  Level Estimated
Wed 10:11:00 PM 10.9044 -25.0713 213° Southwest  Level Estimated
Wed 10:12:00 PM 10.7917 -25.1465 213° Southwest  Level Estimated
Wed 10:13:00 PM 10.6791 -25.2216 213° Southwest  Level Estimated
Wed 10:14:00 PM 10.5664 -25.2967 213° Southwest  Level Estimated
Wed 10:15:00 PM 10.4537 -25.3717 213° Southwest  Level Estimated
Wed 10:16:00 PM 10.3410 -25.4466 213° Southwest  Level Estimated
Wed 10:17:00 PM 10.2283 -25.5215 213° Southwest  Level Estimated
Wed 10:18:00 PM 10.1155 -25.5964 213° Southwest  Level Estimated
Wed 10:19:00 PM 10.0028 -25.6712 213° Southwest  Level Estimated
Wed 10:20:00 PM 9.8900 -25.7459 213° Southwest  Level Estimated
Wed 10:21:00 PM 9.7772 -25.8206 213° Southwest  Level Estimated
Wed 10:22:00 PM 9.6644 -25.8952 213° Southwest  Level Estimated
Wed 10:23:00 PM 9.5516 -25.9698 213° Southwest  Level Estimated
Wed 10:24:00 PM 9.4388 -26.0444 213° Southwest  Level Estimated
Wed 10:25:00 PM 9.3259 -26.1189 213° Southwest  Level Estimated
Wed 10:26:00 PM 9.2130 -26.1933 213° Southwest  Level Estimated
Wed 10:27:00 PM 9.1001 -26.2677 213° Southwest  Level Estimated
Wed 10:28:00 PM 8.9872 -26.3420 213° Southwest  Level Estimated
Wed 10:29:00 PM 8.8743 -26.4163 213° Southwest  Level Estimated
Wed 10:30:00 PM 8.7614 -26.4906 213° Southwest  Level Estimated
Wed 10:31:00 PM 8.6484 -26.5648 213° Southwest  Level Estimated
Wed 10:32:00 PM 8.5355 -26.6390 213° Southwest  Level Estimated
Wed 10:33:00 PM 8.4225 -26.7131 213° Southwest  Level Estimated
Wed 10:34:00 PM 8.3095 -26.7871 213° Southwest  Level Estimated
Wed 10:35:00 PM 8.1965 -26.8612 213° Southwest  Level Estimated
Wed 10:36:00 PM 8.0835 -26.9352 213° Southwest  Level Estimated
Wed 10:37:00 PM 7.9705 -27.0091 213° Southwest  Level Estimated
Wed 10:38:00 PM 7.8574 -27.0830 213° Southwest  Level Estimated
Wed 10:39:00 PM 7.7444 -27.1569 213° Southwest  Level Estimated
Wed 10:40:00 PM 7.6313 -27.2307 213° Southwest  Level Estimated
Wed 10:41:00 PM 7.5182 -27.3045 213° Southwest  Level Estimated
Wed 10:42:00 PM 7.4051 -27.3783 213° Southwest  Level Estimated
Wed 10:43:00 PM 7.2920 -27.4520 213° Southwest  Level Estimated
Wed 10:44:00 PM 7.1789 -27.5257 213° Southwest  Level Estimated
Wed 10:45:00 PM 7.0658 -27.5993 213° Southwest  Level Estimated
Wed 10:46:00 PM 6.9527 -27.6729 213° Southwest  Level Estimated
Wed 10:47:00 PM 6.8395 -27.7465 213° Southwest  Level Estimated
Wed 10:48:00 PM 6.7263 -27.8200 213° Southwest  Level Estimated
Wed 10:49:00 PM 6.6132 -27.8935 213° Southwest  Level Estimated
Wed 10:50:00 PM 6.5000 -27.9670 213° Southwest  Level Estimated
Wed 10:51:00 PM 6.3868 -28.0404 213° Southwest  Level Estimated
Wed 10:52:00 PM 6.2736 -28.1138 213° Southwest  Level Estimated
Wed 10:53:00 PM 6.1604 -28.1872 213° Southwest  Level Estimated
Wed 10:54:00 PM 6.0472 -28.2605 213° Southwest  Level Estimated
Wed 10:55:00 PM 5.9339 -28.3338 213° Southwest  Level Estimated
Wed 10:56:00 PM 5.8207 -28.4071 213° Southwest  Level Estimated
Wed 10:57:00 PM 5.7075 -28.4804 213° Southwest  Level Estimated
Wed 10:58:00 PM 5.5942 -28.5536 213° Southwest  Level Estimated
Wed 10:59:00 PM 5.4809 -28.6268 213° Southwest  Level Estimated
Wed 11:00:00 PM 5.3677 -28.6999 213° Southwest  Level Estimated
Wed 11:01:00 PM 5.2544 -28.7731 213° Southwest  Level Estimated
Wed 11:02:00 PM 5.1411 -28.8462 213° Southwest  Level Estimated
Wed 11:03:00 PM 5.0278 -28.9193 213° Southwest  Level Estimated
Wed 11:04:00 PM 4.9144 -28.9923 213° Southwest  Level Estimated
Wed 11:05:00 PM 4.8011 -29.0653 213° Southwest  Level Estimated
Wed 11:06:00 PM 4.6878 -29.1383 213° Southwest  Level Estimated
Wed 11:07:00 PM 4.5745 -29.2113 213° Southwest  Level Estimated
Wed 11:08:00 PM 4.4611 -29.2843 213° Southwest  Level Estimated
Wed 11:09:00 PM 4.3478 -29.3572 213° Southwest  Level Estimated
Wed 11:10:00 PM 4.2344 -29.4301 213° Southwest  Level Estimated
Wed 11:11:00 PM 4.1210 -29.5030 213° Southwest  Level Estimated
Wed 11:12:00 PM 4.0077 -29.5759 213° Southwest  Level Estimated
Wed 11:13:00 PM 3.8943 -29.6488 213° Southwest  Level Estimated
Wed 11:14:00 PM 3.7809 -29.7216 213° Southwest  Level Estimated
Wed 11:15:00 PM 3.6675 -29.7944 213° Southwest  Level Estimated
Wed 11:16:00 PM 3.5541 -29.8672 213° Southwest  Level Estimated
Wed 11:17:00 PM 3.4407 -29.9400 213° Southwest  Level Estimated
Wed 11:18:00 PM 3.3273 -30.0128 213° Southwest  Level Estimated
Wed 11:19:00 PM 3.2139 -30.0855 213° Southwest  Level Estimated
Wed 11:20:00 PM 3.1005 -30.1582 213° Southwest  Level Estimated
Wed 11:21:00 PM 2.9871 -30.2309 213° Southwest  Level Estimated
Wed 11:22:00 PM 2.8736 -30.3036 213° Southwest  Level Estimated
Wed 11:23:00 PM 2.7602 -30.3763 213° Southwest  Level Estimated
Wed 11:24:00 PM 2.6467 -30.4490 213° Southwest  Level Estimated
Wed 11:25:00 PM 2.5333 -30.5217 213° Southwest  Level Estimated
Wed 11:26:00 PM 2.4199 -30.5943 213° Southwest  Level Estimated
Wed 11:27:00 PM 2.3064 -30.6669 213° Southwest  Level Estimated
Wed 11:28:00 PM 2.1930 -30.7395 213° Southwest  Level Estimated
Wed 11:29:00 PM 2.0795 -30.8122 213° Southwest  Level Estimated
Wed 11:30:00 PM 1.9660 -30.8848 213° Southwest  Level Estimated
Wed 11:31:00 PM 1.8526 -30.9573 213° Southwest  Level Estimated
Wed 11:32:00 PM 1.7391 -31.0299 213° Southwest  Level Estimated
Wed 11:33:00 PM 1.6256 -31.1025 213° Southwest  Level Estimated
Wed 11:34:00 PM 1.5122 -31.1751 213° Southwest  Level Estimated
Wed 11:35:00 PM 1.3987 -31.2476 213° Southwest  Level Estimated
Wed 11:36:00 PM 1.2852 -31.3202 213° Southwest  Level Estimated
Wed 11:37:00 PM 1.1717 -31.3927 213° Southwest  Level Estimated
Wed 11:38:00 PM 1.0583 -31.4653 213° Southwest  Level Estimated
Wed 11:39:00 PM 0.9448 -31.5378 213° Southwest  Level Estimated
Wed 11:40:00 PM 0.8313 -31.6103 213° Southwest  Level Estimated
Wed 11:41:00 PM 0.7178 -31.6828 213° Southwest  Level Estimated
Wed 11:42:00 PM 0.6043 -31.7554 213° Southwest  Level Estimated
Wed 11:43:00 PM 0.4908 -31.8279 213° Southwest  Level Estimated
Wed 11:44:00 PM 0.3774 -31.9004 213° Southwest  Level Estimated
Wed 11:45:00 PM 0.2639 -31.9729 213° Southwest  Level Estimated
Wed 11:46:00 PM 0.1504 -32.0454 213° Southwest  Level Estimated
Wed 11:47:00 PM 0.0369 -32.1179 213° Southwest  Level Estimated
Wed 11:48:00 PM -0.0766 -32.1904 213° Southwest  Level Estimated
Wed 11:49:00 PM -0.1901 -32.2629 213° Southwest  Level Estimated
Wed 11:50:00 PM -0.3036 -32.3354 213° Southwest  Level Estimated
Wed 11:51:00 PM -0.4171 -32.4080 213° Southwest  Level Estimated
Wed 11:52:00 PM -0.5306 -32.4805 213° Southwest  Level Estimated
Wed 11:53:00 PM -0.6441 -32.5530 213° Southwest  Level Estimated
Wed 11:54:00 PM -0.7576 -32.6255 213° Southwest  Level Estimated
Wed 11:55:00 PM -0.8710 -32.6980 213° Southwest  Level Estimated
Wed 11:56:00 PM -0.9845 -32.7705 213° Southwest  Level Estimated
Wed 11:57:00 PM -1.0980 -32.8431 213° Southwest  Level Estimated
Wed 11:58:00 PM -1.2115 -32.9156 213° Southwest  Level Estimated
Wed 11:59:00 PM -1.3249 -32.9882 213° Southwest  Level Estimated
Thu 12:00:00 AM -1.4384 -33.0607 213° Southwest  Level Estimated
Thu 12:01:00 AM -1.5519 -33.1333 213° Southwest  Level Estimated
Thu 12:02:00 AM -1.6654 -33.2058 213° Southwest  Level Estimated
Thu 12:03:00 AM -1.7788 -33.2784 213° Southwest  Level Estimated
Thu 12:04:00 AM -1.8923 -33.3510 213° Southwest  Level Estimated
Thu 12:05:00 AM -2.0058 -33.4236 213° Southwest  Level Estimated
Thu 12:06:00 AM -2.1192 -33.4962 213° Southwest  Level Estimated
Thu 12:07:00 AM -2.2327 -33.5688 213° Southwest  Level Estimated
Thu 12:08:00 AM -2.3461 -33.6414 213° Southwest  Level Estimated
Thu 12:09:00 AM -2.4596 -33.7141 213° Southwest  Level Estimated
Thu 12:10:00 AM -2.5730 -33.7867 213° Southwest  Level Estimated
Thu 12:11:00 AM -2.6865 -33.8594 213° Southwest  Level Estimated
Thu 12:12:00 AM -2.7999 -33.9320 213° Southwest  Level Estimated
Thu 12:13:00 AM -2.9133 -34.0047 213° Southwest  Level Estimated
Thu 12:14:00 AM -3.0268 -34.0774 213° Southwest  Level Estimated
Thu 12:15:00 AM -3.1402 -34.1502 213° Southwest  Level Estimated
Thu 12:16:00 AM -3.2536 -34.2229 213° Southwest  Level Estimated
Thu 12:17:00 AM -3.3670 -34.2956 213° Southwest  Level Estimated
Thu 12:18:00 AM -3.4804 -34.3684 213° Southwest  Level Estimated
Thu 12:19:00 AM -3.5938 -34.4412 213° Southwest  Level Estimated
Thu 12:20:00 AM -3.7072 -34.5140 213° Southwest  Level Estimated
Thu 12:21:00 AM -3.8206 -34.5868 213° Southwest  Level Estimated
Thu 12:22:00 AM -3.9340 -34.6596 213° Southwest  Level Estimated
Thu 12:23:00 AM -4.0474 -34.7325 213° Southwest  Level Estimated
Thu 12:24:00 AM -4.1607 -34.8054 213° Southwest  Level Estimated
Thu 12:25:00 AM -4.2741 -34.8783 213° Southwest  Level Estimated
Thu 12:26:00 AM -4.3875 -34.9512 213° Southwest  Level Estimated
Thu 12:27:00 AM -4.5008 -35.0242 213° Southwest  Level Estimated
Thu 12:28:00 AM -4.6142 -35.0971 213° Southwest  Level Estimated
Thu 12:29:00 AM -4.7275 -35.1701 213° Southwest  Level Estimated
Thu 12:30:00 AM -4.8408 -35.2431 213° Southwest  Level Estimated
Thu 12:31:00 AM -4.9541 -35.3162 213° Southwest  Level Estimated
Thu 12:32:00 AM -5.0674 -35.3893 213° Southwest  Level Estimated
Thu 12:33:00 AM -5.1807 -35.4623 213° Southwest  Level Estimated
Thu 12:34:00 AM -5.2940 -35.5355 213° Southwest  Level Estimated
Thu 12:35:00 AM -5.4073 -35.6086 213° Southwest  Level Estimated
Thu 12:36:00 AM -5.5206 -35.6818 213° Southwest  Level Estimated
Thu 12:37:00 AM -5.6339 -35.7550 213° Southwest  Level Estimated
Thu 12:38:00 AM -5.7471 -35.8282 213° Southwest  Level Estimated
Thu 12:39:00 AM -5.8604 -35.9015 213° Southwest  Level Estimated
Thu 12:39:37 AM -7.2480 -33.8170 213° Southwest 513 590 38,000  Level FlightAware ADS-B
Thu 12:40:00 AM -5.9736 -35.9748 213° Southwest  Level Estimated
Thu 12:40:27 AM -7.3230 -33.9130 232° Southwest 512 589 38,000  Level FlightAware ADS-B
Thu 12:41:07 AM -7.3810 -33.9880 232° Southwest 512 589 38,000  Level FlightAware ADS-B
Thu 12:41:47 AM -7.4450 -34.0690 231° Southwest 512 589 38,000  Level FlightAware ADS-B
Thu 12:42:32 AM -7.5020 -34.1420 232° Southwest 512 589 38,000  Level FlightAware ADS-B
Thu 12:43:07 AM -7.5580 -34.2150 232° Southwest 512 589 38,000  Level FlightAware ADS-B
Thu 12:43:57 AM -7.6350 -34.3140 232° Southwest 512 589 38,000  Level FlightAware ADS-B
Thu 12:44:37 AM -7.6930 -34.3870 231° Southwest 512 589 38,000  Level FlightAware ADS-B
Thu 12:45:17 AM -7.7510 -34.4620 232° Southwest 512 589 38,000  Level FlightAware ADS-B
Thu 12:46:07 AM -7.8230 -34.5540 232° Southwest 510 587 38,000  Level FlightAware ADS-B
Thu 12:46:47 AM -7.8830 -34.6300 231° Southwest 510 587 38,000  Level FlightAware ADS-B
Thu 12:47:27 AM -7.9400 -34.7030 232° Southwest 509 586 38,000  Level FlightAware ADS-B
Thu 12:48:07 AM -8.0000 -34.7800 232° Southwest 510 587 38,000  Level FlightAware ADS-B
Thu 12:48:47 AM -8.0500 -34.8440 232° Southwest 510 587 38,000  Level FlightAware ADS-B
Thu 12:49:27 AM -8.1180 -34.9330 232° Southwest 510 587 38,000  Level FlightAware ADS-B
Thu 12:50:17 AM -8.1790 -35.0280 237° Southwest 509 586 38,000  Level FlightAware ADS-B
Thu 12:50:57 AM -8.2310 -35.1100 237° Southwest 510 587 38,000  Level FlightAware ADS-B
Thu 12:51:42 AM -8.2880 -35.2000 237° Southwest 510 587 38,000  Level FlightAware ADS-B
Thu 12:52:17 AM -8.3330 -35.2720 238° Southwest 510 587 38,000  Level FlightAware ADS-B
Thu 12:52:57 AM -8.3840 -35.3550 238° Southwest 510 587 38,000  Level FlightAware ADS-B
Thu 12:53:47 AM -8.4440 -35.4510 238° Southwest 511 588 38,000  Level FlightAware ADS-B
Thu 12:54:27 AM -8.4960 -35.5330 237° Southwest 511 588 38,000  Level FlightAware ADS-B
Thu 12:55:07 AM -8.5450 -35.6130 238° Southwest 511 588 38,000  Level FlightAware ADS-B
Thu 12:55:47 AM -8.5960 -35.6950 238° Southwest 512 589 38,000  Level FlightAware ADS-B
Thu 12:56:37 AM -8.6570 -35.7920 238° Southwest 512 589 38,000  Level FlightAware ADS-B
Thu 12:57:17 AM -8.7110 -35.8790 238° Southwest 512 589 38,000  Level FlightAware ADS-B
Thu 12:57:57 AM -8.7520 -35.9460 238° Southwest 511 588 38,000  Level FlightAware ADS-B
Thu 12:58:42 AM -8.8130 -36.0420 237° Southwest 511 588 38,000  Level FlightAware ADS-B
Thu 12:59:22 AM -8.8660 -36.1280 238° Southwest 511 588 38,000  Level FlightAware ADS-B
Thu 01:00:02 AM -8.9120 -36.2020 238° Southwest 511 588 38,000  Level FlightAware ADS-B
Thu 01:00:42 AM -8.9540 -36.2710 238° Southwest 511 588 38,000  Level FlightAware ADS-B
Thu 01:01:32 AM -9.0070 -36.3570 238° Southwest 511 588 38,000  Level FlightAware ADS-B
Thu 01:02:12 AM -9.0500 -36.4260 238° Southwest 511 588 38,000  Level FlightAware ADS-B
Thu 01:02:52 AM -9.0930 -36.4950 238° Southwest 511 588 38,000  Level FlightAware ADS-B
Thu 01:03:32 AM -9.1350 -36.5640 238° Southwest 511 588 38,000  Level FlightAware ADS-B
Thu 01:04:12 AM -9.1780 -36.6330 238° Southwest 511 588 38,000  Level FlightAware ADS-B
Thu 01:05:02 AM -9.2310 -36.7190 238° Southwest 511 588 38,000  Level FlightAware ADS-B
Thu 01:05:32 AM -9.2630 -36.7710 238° Southwest 511 588 38,000  Level FlightAware ADS-B
Thu 01:06:22 AM -9.3160 -36.8570 238° Southwest 511 588 38,000  Level FlightAware ADS-B
Thu 01:07:02 AM -9.3590 -36.9270 238° Southwest 511 588 38,000  Level FlightAware ADS-B
Thu 01:07:42 AM -9.4010 -36.9960 238° Southwest 511 588 38,000  Level FlightAware ADS-B
Thu 01:10:00 AM -9.6563 -37.1739 214° Southwest  Level Estimated
Thu 01:11:00 AM -9.7672 -37.2513 215° Southwest  Level Estimated
Thu 01:12:00 AM -9.8782 -37.3288 215° Southwest  Level Estimated
Thu 01:13:00 AM -9.9891 -37.4063 215° Southwest  Level Estimated
Thu 01:14:00 AM -10.1000 -37.4839 215° Southwest  Level Estimated
Thu 01:15:00 AM -10.2109 -37.5616 215° Southwest  Level Estimated
Thu 01:16:00 AM -10.3218 -37.6393 215° Southwest  Level Estimated
Thu 01:17:00 AM -10.4326 -37.7170 215° Southwest  Level Estimated
Thu 01:18:00 AM -10.5435 -37.7948 215° Southwest  Level Estimated
Thu 01:19:00 AM -10.6543 -37.8727 215° Southwest  Level Estimated
Thu 01:20:00 AM -10.7651 -37.9506 215° Southwest  Level Estimated
Thu 01:21:00 AM -10.8759 -38.0286 215° Southwest  Level Estimated
Thu 01:22:00 AM -10.9866 -38.1066 215° Southwest  Level Estimated
Thu 01:23:00 AM -11.0974 -38.1847 215° Southwest  Level Estimated
Thu 01:24:00 AM -11.2081 -38.2629 215° Southwest  Level Estimated
Thu 01:25:00 AM -11.3188 -38.3411 215° Southwest  Level Estimated
Thu 01:26:00 AM -11.4295 -38.4193 215° Southwest  Level Estimated
Thu 01:27:00 AM -11.5401 -38.4977 215° Southwest  Level Estimated
Thu 01:28:00 AM -11.6508 -38.5761 215° Southwest  Level Estimated
Thu 01:29:00 AM -11.7614 -38.6545 215° Southwest  Level Estimated
Thu 01:30:00 AM -11.8720 -38.7330 215° Southwest  Level Estimated
Thu 01:31:00 AM -11.9825 -38.8116 215° Southwest  Level Estimated
Thu 01:32:00 AM -12.0931 -38.8903 215° Southwest  Level Estimated
Thu 01:33:00 AM -12.2036 -38.9690 215° Southwest  Level Estimated
Thu 01:34:00 AM -12.3141 -39.0478 215° Southwest  Level Estimated
Thu 01:35:00 AM -12.4246 -39.1266 215° Southwest  Level Estimated
Thu 01:36:00 AM -12.5350 -39.2055 215° Southwest  Level Estimated
Thu 01:37:00 AM -12.6455 -39.2845 215° Southwest  Level Estimated
Thu 01:38:00 AM -12.7559 -39.3635 215° Southwest  Level Estimated
Thu 01:39:00 AM -12.8663 -39.4427 215° Southwest  Level Estimated
Thu 01:40:00 AM -12.9766 -39.5219 215° Southwest  Level Estimated
Thu 01:41:00 AM -13.0870 -39.6011 215° Southwest  Level Estimated
Thu 01:42:00 AM -13.1973 -39.6805 215° Southwest  Level Estimated
Thu 01:43:00 AM -13.3076 -39.7598 215° Southwest  Level Estimated
Thu 01:44:00 AM -13.4178 -39.8393 215° Southwest  Level Estimated
Thu 01:45:00 AM -13.5281 -39.9189 215° Southwest  Level Estimated
Thu 01:46:00 AM -13.6383 -39.9985 215° Southwest  Level Estimated
Thu 01:47:00 AM -13.7485 -40.0782 215° Southwest  Level Estimated
Thu 01:48:00 AM -13.8587 -40.1580 215° Southwest  Level Estimated
Thu 01:49:00 AM -13.9688 -40.2378 215° Southwest  Level Estimated
Thu 01:50:00 AM -14.0789 -40.3177 215° Southwest  Level Estimated
Thu 01:51:00 AM -14.1890 -40.3977 215° Southwest  Level Estimated
Thu 01:52:00 AM -14.2991 -40.4778 215° Southwest  Level Estimated
Thu 01:53:00 AM -14.4091 -40.5579 215° Southwest  Level Estimated
Thu 01:54:00 AM -14.5191 -40.6382 215° Southwest  Level Estimated
Thu 01:55:00 AM -14.6291 -40.7185 215° Southwest  Level Estimated
Thu 01:56:00 AM -14.7390 -40.7989 215° Southwest  Level Estimated
Thu 01:57:00 AM -14.8490 -40.8793 215° Southwest  Level Estimated
Thu 01:58:00 AM -14.9589 -40.9599 215° Southwest  Level Estimated
Thu 01:59:00 AM -15.0687 -41.0405 215° Southwest  Level Estimated
Thu 02:00:00 AM -15.1786 -41.1213 215° Southwest  Level Estimated
Thu 02:01:00 AM -15.2884 -41.2021 215° Southwest  Level Estimated
Thu 02:02:00 AM -15.3982 -41.2830 215° Southwest  Level Estimated
Thu 02:03:00 AM -15.5079 -41.3639 215° Southwest  Level Estimated
Thu 02:04:00 AM -15.6176 -41.4450 215° Southwest  Level Estimated
Thu 02:05:00 AM -15.7273 -41.5261 215° Southwest  Level Estimated
Thu 02:06:00 AM -15.8370 -41.6074 215° Southwest  Level Estimated
Thu 02:07:00 AM -15.9466 -41.6887 215° Southwest  Level Estimated
Thu 02:08:00 AM -16.0562 -41.7701 216° Southwest  Level Estimated
Thu 02:09:00 AM -16.1658 -41.8516 216° Southwest  Level Estimated
Thu 02:10:00 AM -16.2753 -41.9332 216° Southwest  Level Estimated
Thu 02:11:00 AM -16.3848 -42.0149 216° Southwest  Level Estimated
Thu 02:12:00 AM -16.4943 -42.0967 216° Southwest  Level Estimated
Thu 02:13:00 AM -16.6038 -42.1785 216° Southwest  Level Estimated
Thu 02:14:00 AM -16.7132 -42.2605 216° Southwest  Level Estimated
Thu 02:15:00 AM -16.8225 -42.3426 216° Southwest  Level Estimated
Thu 02:16:00 AM -16.9319 -42.4247 216° Southwest  Level Estimated
Thu 02:17:00 AM -17.0412 -42.5070 216° Southwest  Level Estimated
Thu 02:18:00 AM -17.1505 -42.5893 216° Southwest  Level Estimated
Thu 02:19:00 AM -17.2598 -42.6717 216° Southwest  Level Estimated
Thu 02:20:00 AM -17.3690 -42.7543 216° Southwest  Level Estimated
Thu 02:21:00 AM -17.4781 -42.8369 216° Southwest  Level Estimated
Thu 02:22:00 AM -17.5873 -42.9197 216° Southwest  Level Estimated
Thu 02:23:00 AM -17.6964 -43.0025 216° Southwest  Level Estimated
Thu 02:24:00 AM -17.8055 -43.0854 216° Southwest  Level Estimated
Thu 02:25:00 AM -17.9145 -43.1685 216° Southwest  Level Estimated
Thu 02:26:00 AM -18.0235 -43.2516 216° Southwest  Level Estimated
Thu 02:27:00 AM -18.1325 -43.3349 216° Southwest  Level Estimated
Thu 02:28:00 AM -18.2414 -43.4182 216° Southwest  Level Estimated
Thu 02:29:00 AM -18.3503 -43.5017 216° Southwest  Level Estimated
Thu 02:30:00 AM -18.4592 -43.5852 216° Southwest  Level Estimated
Thu 02:31:00 AM -18.5680 -43.6689 216° Southwest  Level Estimated
Thu 02:32:00 AM -18.6768 -43.7527 216° Southwest  Level Estimated
Thu 02:32:27 AM -18.8120 -44.1860 216° Southwest 479 551 38,000  Level FlightAware ADS-B
Thu 02:33:00 AM -18.7856 -43.8365 216° Southwest  Level Estimated
Thu 02:33:12 AM -18.8930 -44.2410 213° Southwest 480 552 38,000  Level FlightAware ADS-B
Thu 02:34:07 AM -18.9970 -44.3140 214° Southwest 479 551 38,000  Level FlightAware ADS-B
Thu 02:34:47 AM -19.0700 -44.3650 213° Southwest 480 552 38,000  Level FlightAware ADS-B
Thu 02:35:32 AM -19.1510 -44.4270 216° Southwest 478 550 38,000  Level FlightAware ADS-B
Thu 02:36:22 AM -19.2380 -44.4950 216° Southwest 476 548 38,000  Level FlightAware ADS-B
Thu 02:37:22 AM -19.3510 -44.5810 216° Southwest 474 545 38,000  Level FlightAware ADS-B
Thu 02:38:07 AM -19.4280 -44.6450 218° Southwest 470 541 38,000  Level FlightAware ADS-B
Thu 02:38:47 AM -19.5080 -44.7080 217° Southwest 473 544 38,000  Level FlightAware ADS-B
Thu 02:39:47 AM -19.6070 -44.7800 214° Southwest 475 547 38,000  Level FlightAware ADS-B
Thu 02:40:22 AM -19.6660 -44.8220 214° Southwest 475 547 38,000  Level FlightAware ADS-B
Thu 02:41:22 AM -19.7800 -44.9000 213° Southwest 476 548 38,000  Level FlightAware ADS-B
Thu 02:42:02 AM -19.8430 -44.9430 213° Southwest 476 548 38,000  Level FlightAware ADS-B
Thu 02:42:42 AM -19.9060 -44.9870 213° Southwest 476 548 38,000  Level FlightAware ADS-B
Thu 02:43:22 AM -19.9690 -45.0300 213° Southwest 476 548 38,000  Level FlightAware ADS-B
Thu 02:44:12 AM -20.0470 -45.0840 213° Southwest 476 548 38,000  Level FlightAware ADS-B
Thu 02:44:52 AM -20.1100 -45.1280 213° Southwest 476 548 38,000  Level FlightAware ADS-B
Thu 02:45:32 AM -20.1730 -45.1710 213° Southwest 476 548 38,000  Level FlightAware ADS-B
Thu 02:46:12 AM -20.2360 -45.2150 213° Southwest 476 548 38,000  Level FlightAware ADS-B
Thu 02:46:52 AM -20.2980 -45.2580 213° Southwest 476 548 38,000  Level FlightAware ADS-B
Thu 02:47:42 AM -20.3770 -45.3120 213° Southwest 476 548 38,000  Level FlightAware ADS-B
Thu 02:48:22 AM -20.4400 -45.3560 213° Southwest 476 548 38,000  Level FlightAware ADS-B
Thu 02:49:02 AM -20.5020 -45.4000 214° Southwest 476 548 38,000  Level FlightAware ADS-B
Thu 02:49:42 AM -20.5650 -45.4430 213° Southwest 476 548 38,000  Level FlightAware ADS-B
Thu 02:50:22 AM -20.6280 -45.4870 213° Southwest 476 548 38,000  Level FlightAware ADS-B
Thu 02:51:37 AM -20.9160 -45.6850 213° Southwest 463 533 38,000  Level FlightAware ADS-B
Thu 02:52:22 AM -21.0010 -45.7450 213° Southwest 462 532 38,000  Level FlightAware ADS-B
Thu 02:53:02 AM -21.0710 -45.7940 213° Southwest 463 533 38,000  Level FlightAware ADS-B
Thu 02:53:42 AM -21.1340 -45.8390 214° Southwest 463 533 38,000  Level FlightAware ADS-B
Thu 02:54:27 AM -21.2330 -45.9060 212° Southwest 464 534 38,000  Level FlightAware ADS-B
Thu 02:55:07 AM -21.3040 -45.9560 213° Southwest 464 534 38,000  Level FlightAware ADS-B
Thu 02:55:47 AM -21.3790 -46.0080 213° Southwest 465 535 38,000  Level FlightAware ADS-B
Thu 02:56:32 AM -21.4630 -46.0660 213° Southwest 464 534 38,000  Level FlightAware ADS-B
Thu 02:58:12 AM -21.6330 -46.1850 213° Southwest 470 541 38,000  Level FlightAware ADS-B
Thu 02:59:32 AM -21.7840 -46.2900 213° Southwest 465 535 38,000  Level FlightAware ADS-B
Thu 03:00:17 AM -21.8620 -46.3440 213° Southwest 465 535 38,000  Level FlightAware ADS-B
Thu 03:00:57 AM -21.8950 -46.3680 214° Southwest 471 542 38,000  Level FlightAware ADS-B
Thu 03:01:37 AM -21.9620 -46.4140 212° Southwest 470 541 38,000  Level FlightAware ADS-B
Thu 03:02:22 AM -22.0940 -46.5060 213° Southwest 469 540 38,000  Level FlightAware ADS-B
Thu 03:03:17 AM -22.2030 -46.5820 213° Southwest 462 532 38,000  Level FlightAware ADS-B
Thu 03:04:02 AM -22.2840 -46.6380 213° Southwest 461 531 38,000  Level FlightAware ADS-B
Thu 03:04:42 AM -22.3540 -46.6860 212° Southwest 464 534 38,000  Level FlightAware ADS-B
Thu 03:05:22 AM -22.4300 -46.7410 214° Southwest 464 534 38,000  Level FlightAware ADS-B
Thu 03:06:07 AM -22.5090 -46.7970 213° Southwest 466 536 38,000  Level FlightAware ADS-B
Thu 03:06:47 AM -22.5870 -46.8510 213° Southwest 474 545 38,000  Level FlightAware ADS-B
Thu 03:07:32 AM -22.6670 -46.9070 213° Southwest 476 548 38,000  Level FlightAware ADS-B
Thu 03:08:12 AM -22.7420 -46.9590 213° Southwest 476 548 38,000  Level FlightAware ADS-B
Thu 03:08:52 AM -22.8180 -47.0120 213° Southwest 476 548 38,000  Level FlightAware ADS-B
Thu 03:09:37 AM -22.9010 -47.0720 214° Southwest 469 540 38,000  Level FlightAware ADS-B
Thu 03:10:17 AM -22.9760 -47.1260 214° Southwest 477 549 38,000  Level FlightAware ADS-B
Thu 03:11:52 AM -23.1570 -47.2230 217° Southwest 481 554 38,000  Level FlightAware ADS-B
Thu 03:12:00 AM -23.1594 -47.2790 217° Southwest  Level Estimated
Thu 03:13:07 AM -23.3080 -47.2980 205° Southwest 476 548 38,000  Level FlightAware ADS-B
Thu 03:14:17 AM -23.4490 -47.3690 205° Southwest 476 548 38,000  Level FlightAware ADS-B
Thu 03:15:27 AM -23.5770 -47.4630 214° Southwest 467 537 38,000  Level FlightAware ADS-B
Thu 03:16:37 AM -23.7030 -47.5710 218° Southwest 469 540 38,000  Level FlightAware ADS-B
Thu 03:17:17 AM -23.7690 -47.6290 219° Southwest 468 539 38,000  Level FlightAware ADS-B
Thu 03:18:02 AM -23.8450 -47.6950 218° Southwest 466 536 38,000  Level FlightAware ADS-B
Thu 03:18:42 AM -23.9100 -47.7520 219° Southwest 465 535 38,000  Level FlightAware ADS-B
Thu 03:19:37 AM -24.0020 -47.8320 218° Southwest 465 535 38,000  Level FlightAware ADS-B
Thu 03:20:22 AM -24.0800 -47.9010 219° Southwest 468 539 38,000  Level FlightAware ADS-B
Thu 03:21:02 AM -24.1480 -47.9600 218° Southwest 470 541 38,000  Level FlightAware ADS-B
Thu 03:21:42 AM -24.2160 -48.0200 219° Southwest 473 544 38,000  Level FlightAware ADS-B
Thu 03:22:27 AM -24.2940 -48.0900 219° Southwest 477 549 38,000  Level FlightAware ADS-B
Thu 03:23:07 AM -24.3640 -48.1520 219° Southwest 480 552 38,000  Level FlightAware ADS-B
Thu 03:23:52 AM -24.4400 -48.2190 219° Southwest 484 557 38,000  Level FlightAware ADS-B
Thu 03:24:32 AM -24.5110 -48.2820 219° Southwest 486 559 38,000  Level FlightAware ADS-B
Thu 03:25:17 AM -24.5890 -48.3510 219° Southwest 486 559 38,000  Level FlightAware ADS-B
Thu 03:25:57 AM -24.6580 -48.4120 219° Southwest 485 558 38,000  Level FlightAware ADS-B
Thu 03:26:37 AM -24.7280 -48.4740 219° Southwest 484 557 38,000  Level FlightAware ADS-B
Thu 03:27:17 AM -24.7990 -48.5370 219° Southwest 483 556 38,000  Level FlightAware ADS-B
Thu 03:28:02 AM -24.8800 -48.6090 219° Southwest 482 555 38,000  Level FlightAware ADS-B
Thu 03:28:42 AM -24.9480 -48.6690 219° Southwest 481 554 38,000  Level FlightAware ADS-B
Thu 03:29:27 AM -25.0250 -48.7380 219° Southwest 479 551 38,000  Level FlightAware ADS-B
Thu 03:30:07 AM -25.0930 -48.7980 219° Southwest 477 549 38,000  Level FlightAware ADS-B
Thu 03:30:52 AM -25.1710 -48.8670 219° Southwest 476 548 38,000  Level FlightAware ADS-B
Thu 03:31:32 AM -25.2390 -48.9280 219° Southwest 475 547 38,000  Level FlightAware ADS-B
Thu 03:32:12 AM -25.3060 -48.9890 219° Southwest 474 545 38,000  Level FlightAware ADS-B
Thu 03:32:57 AM -25.3860 -49.0600 219° Southwest 474 545 38,000  Level FlightAware ADS-B
Thu 03:33:37 AM -25.4530 -49.1210 219° Southwest 474 545 38,000  Level FlightAware ADS-B
Thu 03:34:17 AM -25.5200 -49.1790 218° Southwest 474 545 38,000  Level FlightAware ADS-B
Thu 03:35:02 AM -25.6050 -49.2400 213° Southwest 474 545 38,000  Level FlightAware ADS-B
Thu 03:35:42 AM -25.6780 -49.2910 212° Southwest 473 544 38,000  Level FlightAware ADS-B
Thu 03:36:27 AM -25.7600 -49.3480 212° Southwest 471 542 38,000  Level FlightAware ADS-B
Thu 03:37:07 AM -25.8330 -49.3990 212° Southwest 470 541 38,000  Level FlightAware ADS-B
Thu 03:37:47 AM -25.9040 -49.4480 212° Southwest 469 540 38,000  Level FlightAware ADS-B
Thu 03:38:27 AM -25.9800 -49.5010 212° Southwest 468 539 38,000  Level FlightAware ADS-B
Thu 03:39:07 AM -26.0540 -49.5530 212° Southwest 471 542 38,000  Level FlightAware ADS-B
Thu 03:39:57 AM -26.1490 -49.6190 212° Southwest 473 544 38,000  Level FlightAware ADS-B
Thu 03:40:32 AM -26.2090 -49.6610 212° Southwest 474 545 38,000  Level FlightAware ADS-B
Thu 03:41:32 AM -26.3210 -49.7390 212° Southwest 474 545 38,000  Level FlightAware ADS-B
Thu 03:42:12 AM -26.3840 -49.7830 212° Southwest 474 545 38,000  Level FlightAware ADS-B
Thu 03:42:57 AM -26.4830 -49.8520 212° Southwest 473 544 38,000  Level FlightAware ADS-B
Thu 03:43:42 AM -26.5670 -49.9110 212° Southwest 473 544 38,000  Level FlightAware ADS-B
Thu 03:44:22 AM -26.6340 -49.9570 212° Southwest 472 543 38,000  Level FlightAware ADS-B
Thu 03:45:02 AM -26.7150 -50.0150 213° Southwest 469 540 38,000  Level FlightAware ADS-B
Thu 03:45:42 AM -26.7800 -50.0600 212° Southwest 469 540 38,000  Level FlightAware ADS-B
Thu 03:46:22 AM -26.8430 -50.1040 212° Southwest 469 540 38,000  Level FlightAware ADS-B
Thu 03:47:07 AM -26.9450 -50.1760 212° Southwest 464 534 38,000  Level FlightAware ADS-B
Thu 03:47:47 AM -27.0190 -50.2290 213° Southwest 463 533 38,000  Level FlightAware ADS-B
Thu 03:48:32 AM -27.0970 -50.2840 212° Southwest 462 532 38,000  Level FlightAware ADS-B
Thu 03:49:12 AM -27.1610 -50.3290 212° Southwest 462 532 38,000  Level FlightAware ADS-B
Thu 03:49:57 AM -27.2500 -50.3920 212° Southwest 459 528 38,000  Level FlightAware ADS-B
Thu 03:50:37 AM -27.3240 -50.4450 212° Southwest 459 528 38,000  Level FlightAware ADS-B
Thu 03:51:22 AM -27.4020 -50.5010 213° Southwest 459 528 38,000  Level FlightAware ADS-B
Thu 03:52:17 AM -27.4960 -50.5670 212° Southwest 459 528 38,000  Level FlightAware ADS-B
Thu 03:52:57 AM -27.5760 -50.6250 213° Southwest 460 529 38,000  Level FlightAware ADS-B
Thu 03:53:37 AM -27.6430 -50.6730 212° Southwest 461 531 38,000  Level FlightAware ADS-B
Thu 03:54:22 AM -27.7250 -50.7310 212° Southwest 462 532 38,000  Level FlightAware ADS-B
Thu 03:55:02 AM -27.7920 -50.7790 212° Southwest 462 532 38,000  Level FlightAware ADS-B
Thu 03:55:42 AM -27.8540 -50.8230 212° Southwest 462 532 38,000  Level FlightAware ADS-B
Thu 03:56:22 AM -27.9150 -50.8660 212° Southwest 462 532 38,000  Level FlightAware ADS-B
Thu 03:57:02 AM -28.0090 -50.9360 213° Southwest 460 529 38,000  Level FlightAware ADS-B
Thu 03:57:52 AM -28.0990 -51.0020 213° Southwest 461 531 38,000  Level FlightAware ADS-B
Thu 03:58:32 AM -28.1780 -51.0590 212° Southwest 461 531 38,000  Level FlightAware ADS-B
Thu 03:59:17 AM -28.2580 -51.1180 213° Southwest 461 531 38,000  Level FlightAware ADS-B
Thu 04:01:00 AM -28.4286 -51.2928 222° Southwest  Level Estimated
Thu 04:01:02 AM -28.4390 -51.2500 222° Southwest 458 527 38,000  Level FlightAware ADS-B
Thu 04:03:00 AM -28.6335 -51.4517 222° Southwest  Level Estimated
Thu 04:03:17 AM -28.6650 -51.4330 222° Southwest 453 521 38,000  Level FlightAware ADS-B
Thu 04:04:02 AM -28.7430 -51.5070 220° Southwest 453 521 38,000  Level FlightAware ADS-B
Thu 04:04:37 AM -28.8030 -51.5650 220° Southwest 452 520 38,000  Level FlightAware ADS-B
Thu 04:05:17 AM -28.8660 -51.6250 220° Southwest 451 519 38,000  Level FlightAware ADS-B
Thu 04:06:07 AM -28.9430 -51.6990 220° Southwest 450 518 38,000  Level FlightAware ADS-B
Thu 04:06:47 AM -29.0090 -51.7630 220° Southwest 449 517 38,000  Level FlightAware ADS-B
Thu 04:07:27 AM -29.0730 -51.8250 220° Southwest 449 517 38,000  Level FlightAware ADS-B
Thu 04:08:07 AM -29.1410 -51.8900 220° Southwest 450 518 38,000  Level FlightAware ADS-B
Thu 04:08:52 AM -29.2100 -51.9580 221° Southwest 451 519 38,000  Level FlightAware ADS-B
Thu 04:09:32 AM -29.2730 -52.0190 220° Southwest 451 519 38,000  Level FlightAware ADS-B
Thu 04:10:17 AM -29.3460 -52.0900 220° Southwest 451 519 38,000  Level FlightAware ADS-B
Thu 04:10:52 AM -29.3960 -52.1390 220° Southwest 451 519 38,000  Level FlightAware ADS-B
Thu 04:11:42 AM -29.4800 -52.2200 220° Southwest 452 520 38,000  Level FlightAware ADS-B
Thu 04:12:22 AM -29.5430 -52.2820 221° Southwest 451 519 38,000  Level FlightAware ADS-B
Thu 04:13:02 AM -29.6070 -52.3450 221° Southwest 451 519 38,000  Level FlightAware ADS-B
Thu 04:13:47 AM -29.6790 -52.4160 221° Southwest 450 518 38,000  Level FlightAware ADS-B
Thu 04:14:27 AM -29.7410 -52.4760 220° Southwest 450 518 38,000  Level FlightAware ADS-B
Thu 04:15:12 AM -29.8140 -52.5480 221° Southwest 451 519 38,000  Level FlightAware ADS-B
Thu 04:15:52 AM -29.8770 -52.6100 220° Southwest 451 519 38,000  Level FlightAware ADS-B
Thu 04:16:32 AM -29.9400 -52.6730 221° Southwest 451 519 38,000  Level FlightAware ADS-B
Thu 04:17:17 AM -30.0110 -52.7430 220° Southwest 451 519 38,000  Level FlightAware ADS-B
Thu 04:17:57 AM -30.0750 -52.8060 220° Southwest 450 518 38,000  Level FlightAware ADS-B
Thu 04:18:42 AM -30.1450 -52.8760 221° Southwest 450 518 38,000  Level FlightAware ADS-B
Thu 04:19:22 AM -30.2080 -52.9390 221° Southwest 450 518 38,000  Level FlightAware ADS-B
Thu 04:20:02 AM -30.2710 -53.0020 221° Southwest 450 518 38,000  Level FlightAware ADS-B
Thu 04:20:47 AM -30.3430 -53.0730 220° Southwest 450 518 38,000  Level FlightAware ADS-B
Thu 04:21:27 AM -30.4050 -53.1350 221° Southwest 449 517 38,000  Level FlightAware ADS-B
Thu 04:22:12 AM -30.4760 -53.2060 221° Southwest 450 518 38,000  Level FlightAware ADS-B
Thu 04:22:52 AM -30.5390 -53.2700 221° Southwest 449 517 38,000  Level FlightAware ADS-B
Thu 04:23:32 AM -30.6020 -53.3330 221° Southwest 448 516 38,000  Level FlightAware ADS-B
Thu 04:24:17 AM -30.6710 -53.4030 221° Southwest 448 516 38,000  Level FlightAware ADS-B
Thu 04:24:57 AM -30.7330 -53.4660 221° Southwest 448 516 38,000  Level FlightAware ADS-B
Thu 04:25:42 AM -30.8050 -53.5380 221° Southwest 448 516 38,000  Level FlightAware ADS-B
Thu 04:26:22 AM -30.8660 -53.6000 221° Southwest 449 517 38,000  Level FlightAware ADS-B
Thu 04:27:02 AM -30.9290 -53.6650 222° Southwest 448 516 38,000  Level FlightAware ADS-B
Thu 04:27:47 AM -31.0000 -53.7360 221° Southwest 448 516 38,000  Level FlightAware ADS-B
Thu 04:28:27 AM -31.0630 -53.8000 221° Southwest 446 513 38,000  Level FlightAware ADS-B
Thu 04:29:12 AM -31.1320 -53.8700 221° Southwest 446 513 38,000  Level FlightAware ADS-B
Thu 04:29:52 AM -31.1950 -53.9350 221° Southwest 446 513 38,000  Level FlightAware ADS-B
Thu 04:30:42 AM -31.2740 -54.0160 221° Southwest 447 514 38,000  Level FlightAware ADS-B
Thu 04:31:27 AM -31.3350 -54.0780 221° Southwest 447 514 38,000  Level FlightAware ADS-B
Thu 04:32:07 AM -31.3880 -54.1320 221° Southwest 447 514 38,000  Level FlightAware ADS-B
Thu 04:32:47 AM -31.4410 -54.1860 221° Southwest 447 514 38,000  Level FlightAware ADS-B
Thu 04:33:32 AM -31.5220 -54.3050 231° Southwest 451 519 38,000  Level FlightAware ADS-B
Thu 04:34:32 AM -31.6030 -54.4020 226° Southwest 452 520 38,000  Level FlightAware ADS-B
Thu 04:35:12 AM -31.6530 -54.4610 225° Southwest 452 520 38,000  Level FlightAware ADS-B
Thu 04:35:52 AM -31.7040 -54.5200 225° Southwest 452 520 38,000  Level FlightAware ADS-B
Thu 04:36:32 AM -31.7540 -54.5790 225° Southwest 452 520 38,000  Level FlightAware ADS-B
Thu 04:37:12 AM -31.8040 -54.6380 225° Southwest 452 520 38,000  Level FlightAware ADS-B
Thu 04:38:02 AM -31.8670 -54.7120 225° Southwest 452 520 38,000  Level FlightAware ADS-B
Thu 04:38:42 AM -31.9170 -54.7710 225° Southwest 452 520 38,000  Level FlightAware ADS-B
Thu 04:39:22 AM -31.9670 -54.8310 226° Southwest 452 520 38,000  Level FlightAware ADS-B
Thu 04:40:02 AM -32.0180 -54.8900 224° Southwest 452 520 38,000  Level FlightAware ADS-B
Thu 04:40:42 AM -32.0680 -54.9490 225° Southwest 452 520 38,000  Level FlightAware ADS-B
Thu 04:41:32 AM -32.1310 -55.0230 225° Southwest 452 520 38,000  Level FlightAware ADS-B
Thu 04:42:12 AM -32.1810 -55.0830 225° Southwest 452 520 38,000  Level FlightAware ADS-B
Thu 04:42:52 AM -32.2310 -55.1420 225° Southwest 452 520 38,000  Level FlightAware ADS-B
Thu 04:43:32 AM -32.2820 -55.2020 225° Southwest 452 520 38,000  Level FlightAware ADS-B
Thu 04:46:00 AM -32.5085 -55.4863 227° Southwest  Level Estimated
Thu 04:46:47 AM -32.6590 -55.7110 227° Southwest 449 517 38,000  Level FlightAware ADS-B
Thu 04:47:00 AM -32.6002 -55.6019 227° Southwest  Level Estimated
Thu 04:47:32 AM -32.7180 -55.7840 226° Southwest 449 517 38,000  Level FlightAware ADS-B
Thu 04:48:17 AM -32.7030 -55.7650 47° Northeast 447 514 38,000  Level FlightAware ADS-B
Thu 04:49:02 AM -32.8480 -55.9510 227° Southwest 446 513 38,000  Level FlightAware ADS-B
Thu 04:49:57 AM -32.9270 -56.0510 227° Southwest 445 512 38,000  Level FlightAware ADS-B
Thu 04:50:42 AM -32.9900 -56.1310 227° Southwest 446 513 38,000  Level FlightAware ADS-B
Thu 04:51:37 AM -33.0650 -56.2270 227° Southwest 446 513 38,000  Level FlightAware ADS-B
Thu 04:52:17 AM -33.1300 -56.3110 227° Southwest 445 512 38,000  Level FlightAware ADS-B
Thu 04:53:22 AM -33.2160 -56.4210 227° Southwest 443 510 38,000  Level FlightAware ADS-B
Thu 04:54:12 AM -33.2480 -56.4620 227° Southwest 443 510 38,000  Level FlightAware ADS-B
Thu 04:54:42 AM -33.3330 -56.5720 227° Southwest 443 510 38,000  Level FlightAware ADS-B
Thu 04:55:27 AM -33.3470 -56.5900 227° Southwest 443 510 38,000  Level FlightAware ADS-B
Thu 04:56:07 AM -33.4520 -56.7260 227° Southwest 443 510 38,000  Level FlightAware ADS-B
Thu 04:56:52 AM -33.4920 -56.7770 227° Southwest 443 510 38,000  Level FlightAware ADS-B
Thu 04:57:42 AM -33.5790 -56.8910 227° Southwest 443 510 38,000 -133 Level FlightAware ADS-B
Thu 04:58:22 AM -33.6370 -56.9670 227° Southwest 443 510 37,800 -900 Descending FlightAware ADS-B
Thu 04:59:02 AM -33.6930 -57.0400 227° Southwest 447 514 36,800 -1,500 Descending FlightAware ADS-B
Thu 05:00:22 AM -33.8020 -57.1830 227° Southwest 456 525 34,800 -1,754 Descending FlightAware ADS-B
Thu 05:01:12 AM -33.8720 -57.2750 227° Southwest 443 510 33,000 -2,400 Descending FlightAware ADS-B
Thu 05:01:42 AM -33.9170 -57.3350 228° Southwest 436 502 31,600 -3,375 Descending FlightAware ADS-B
Thu 05:02:32 AM -33.9860 -57.4260 228° Southwest 446 513 28,500 -3,726 Descending FlightAware ADS-B
Thu 05:03:17 AM -34.0490 -57.5100 228° Southwest 451 519 25,700 -3,671 Descending FlightAware ADS-B
Thu 05:03:57 AM -34.1060 -57.5850 227° Southwest 454 522 23,300 -3,150 Descending FlightAware ADS-B
Thu 05:04:37 AM -34.1620 -57.6600 228° Southwest 441 507 21,500 -2,682 Descending FlightAware ADS-B
Thu 05:05:22 AM -34.2210 -57.7390 228° Southwest 431 496 19,500 -2,541 Descending FlightAware ADS-B
Thu 05:06:02 AM -34.2730 -57.8080 228° Southwest 418 481 17,900 -2,682 Descending FlightAware ADS-B
Thu 05:06:47 AM -34.3330 -57.8890 228° Southwest 412 474 15,700 -2,824 Descending FlightAware ADS-B
Thu 05:07:27 AM -34.3840 -57.9570 228° Southwest 411 473 13,900 -2,329 Descending FlightAware ADS-B
Thu 05:08:12 AM -34.4390 -58.0310 228° Southwest 396 456 12,400 -1,553 Descending FlightAware ADS-B
Thu 05:08:52 AM -34.4880 -58.0940 227° Southwest 366 421 11,700 -975 Descending FlightAware ADS-B
Thu 05:09:32 AM -34.5320 -58.1520 227° Southwest 340 391 11,100 -988 Descending FlightAware ADS-B
Thu 05:10:17 AM -34.5800 -58.2140 227° Southwest 318 366 10,300 -1,029 Descending FlightAware ADS-B
Thu 05:10:42 AM -34.6030 -58.2450 228° Southwest 307 353 9,900 -982 Descending FlightAware ADS-B
Thu 05:11:12 AM -34.6310 -58.2820 227° Southwest 296 341 9,400 -1,067 Descending FlightAware ADS-B
Thu 05:11:27 AM -34.6460 -58.3010 226° Southwest 290 334 9,100 -900 Descending FlightAware ADS-B
Thu 05:11:52 AM -34.6670 -58.3290 228° Southwest 279 321 8,800 -655 Descending FlightAware ADS-B
Thu 05:12:22 AM -34.6930 -58.3630 227° Southwest 260 299 8,500 -764 Descending FlightAware ADS-B
Thu 05:12:47 AM -34.7140 -58.3900 227° Southwest 250 288 8,100 -750 Descending FlightAware ADS-B
Thu 05:13:02 AM -34.7250 -58.4050 228° Southwest 247 284 8,000 -800 Descending FlightAware ADS-B
Thu 05:13:32 AM -34.7480 -58.4350 227° Southwest 248 285 7,500 -1,000 Descending FlightAware ADS-B
Thu 05:14:02 AM -34.7710 -58.4650 227° Southwest 247 284 7,000 -1,200 Descending FlightAware ADS-B
Thu 05:14:27 AM -34.7910 -58.4920 228° Southwest 247 284 6,400 -1,418 Descending FlightAware ADS-B
Thu 05:14:57 AM -34.8150 -58.5240 228° Southwest 247 284 5,700 -1,350 Descending FlightAware ADS-B
Thu 05:15:07 AM -34.8210 -58.5350 236° Southwest 244 281 5,500 -960 Descending FlightAware ADS-B
Thu 05:15:22 AM -34.8250 -58.5530 255° West 240 276 5,300 -933 Descending FlightAware ADS-B
Thu 05:15:52 AM -34.8270 -58.5930 267° West 238 274 4,800 -1,200 Descending FlightAware ADS-B
Thu 05:16:07 AM -34.8280 -58.6140 267° West 237 273 4,400 -1,350 Descending FlightAware ADS-B
Thu 05:16:32 AM -34.8280 -58.6460 270° West 236 272 3,900 -982 Descending FlightAware ADS-B
Thu 05:17:02 AM -34.8300 -58.6840 266° West 214 246 3,500 -800 Descending FlightAware ADS-B
Thu 05:17:17 AM -34.8310 -58.7040 267° West 203 234 3,300 -900 Descending FlightAware ADS-B
Thu 05:17:42 AM -34.8320 -58.7300 267° West 191 220 2,900 -857 Descending FlightAware ADS-B
Thu 05:18:27 AM -34.8180 -58.7680 294° West 181 208 2,300 -873 Descending FlightAware ADS-B
Thu 05:18:37 AM -34.8090 -58.7670 North 177 204 2,100 -480 Descending FlightAware ADS-B
Thu 05:18:52 AM -34.7990 -58.7570 39° Northeast 189 217 2,100  Level FlightAware ADS-B
Thu 05:19:07 AM -34.7950 -58.7410 73° East 198 228 2,100  Level FlightAware ADS-B
Thu 05:19:32 AM -34.7910 -58.7160 79° East 186 214 2,100  Level FlightAware ADS-B
Thu 05:20:02 AM -34.7960 -58.6850 101° East 185 213 2,100 -400 Level FlightAware ADS-B
Thu 05:20:32 AM -34.8010 -58.6560 102° East 171 197 1,700 -873 Descending FlightAware ADS-B
Thu 05:20:57 AM -34.8050 -58.6330 102° East 163 188 1,300 -873 Descending FlightAware ADS-B
Thu 05:21:27 AM -34.8100 -58.6060 103° East 163 188 900 -800 Descending FlightAware ADS-B
Thu 05:21:57 AM -34.8140 -58.5800 101° East 162 186 500 -873 Descending FlightAware ADS-B
Thu 05:22:22 AM -34.8180 -58.5580 102° East 154 177 100 -480 Descending FlightAware ADS-B
Thu 05:22:47 AM -34.8210 -58.5390 101° East 154 177 100  Level FlightAware ADS-B
Thu 05:25:00 AM -34.8235 -58.5288 106° East  Level Estimated
Thu 05:26:00 AM -34.8235 -58.5288 231° Southwest  Level Estimated

Login

Don't have an account? Register now (free) for customized features, flight alerts, and more!